createdAt,value
2023-01-10T00:01:56.951Z,6.93
2023-01-10T00:04:26.373Z,6.65
2023-01-10T00:06:53.208Z,6.75
2023-01-10T00:09:19.674Z,6.40
2023-01-10T00:12:04.803Z,6.85
2023-01-10T00:14:33.377Z,7.68
2023-01-10T00:16:59.813Z,6.93
2023-01-10T00:19:26.348Z,6.35
2023-01-10T00:21:53.326Z,6.13
2023-01-10T00:24:19.938Z,6.43
2023-01-10T00:26:51.635Z,6.18
2023-01-10T00:29:24.762Z,5.95
2023-01-10T00:31:51.181Z,6.80
2023-01-10T00:34:17.648Z,5.78
2023-01-10T00:36:45.612Z,5.32
2023-01-10T00:39:12.141Z,5.82
2023-01-10T00:41:58.143Z,5.10
2023-01-10T00:44:24.666Z,5.38
2023-01-10T00:46:51.268Z,5.20
2023-01-10T00:49:18.074Z,5.18
2023-01-10T00:51:45.069Z,4.88
2023-01-10T00:54:13.134Z,4.90
2023-01-10T00:56:40.102Z,4.47
2023-01-10T00:59:06.717Z,4.90
2023-01-10T01:01:33.651Z,4.45
2023-01-10T01:04:00.217Z,5.07
2023-01-10T01:06:26.727Z,5.38
2023-01-10T01:08:53.845Z,4.63
2023-01-10T01:11:20.355Z,4.85
2023-01-10T01:13:46.773Z,4.68
2023-01-10T01:16:13.300Z,5.07
2023-01-10T01:18:39.765Z,4.38
2023-01-10T01:21:06.494Z,4.53
2023-01-10T01:23:34.688Z,4.30
2023-01-10T01:26:01.514Z,4.53
2023-01-10T01:28:28.572Z,4.78
2023-01-10T01:30:55.231Z,4.50
2023-01-10T01:33:21.794Z,4.38
2023-01-10T01:35:49.259Z,4.50
2023-01-10T01:38:16.387Z,4.13
2023-01-10T01:40:43.012Z,4.28
2023-01-10T01:43:23.440Z,4.45
2023-01-10T01:45:50.510Z,4.45
2023-01-10T01:48:23.210Z,3.85
2023-01-10T01:51:07.622Z,3.42
2023-01-10T01:53:37.079Z,3.20
2023-01-10T01:56:09.991Z,3.47
2023-01-10T01:58:42.775Z,4.10
2023-01-10T02:01:10.798Z,3.42
2023-01-10T02:03:39.194Z,3.90
2023-01-10T02:06:07.231Z,3.40
2023-01-10T02:08:34.088Z,3.70
2023-01-10T02:11:09.219Z,3.47
2023-01-10T02:13:40.000Z,3.13
2023-01-10T02:16:07.312Z,3.42
2023-01-10T02:18:34.281Z,3.30
2023-01-10T02:21:06.414Z,3.58
2023-01-10T02:24:06.508Z,3.58
2023-01-10T02:26:38.730Z,3.28
2023-01-10T02:29:37.904Z,3.92
2023-01-10T02:32:35.918Z,3.40
2023-01-10T02:35:39.202Z,3.55
2023-01-10T02:38:24.245Z,3.72
2023-01-10T02:41:03.149Z,3.72
2023-01-10T02:43:39.652Z,3.75
2023-01-10T02:46:13.127Z,3.60
2023-01-10T02:48:39.638Z,3.88
2023-01-10T02:51:29.626Z,3.55
2023-01-10T02:54:09.535Z,3.40
2023-01-10T02:56:51.912Z,3.65
2023-01-10T02:59:24.259Z,3.50
2023-01-10T03:02:17.048Z,4.28
2023-01-10T03:04:58.374Z,3.92
2023-01-10T03:07:39.059Z,3.78
2023-01-10T03:10:13.583Z,3.78
2023-01-10T03:12:49.088Z,3.63
2023-01-10T03:15:19.561Z,3.95
2023-01-10T03:17:50.552Z,3.67
2023-01-10T03:20:20.780Z,4.10
2023-01-10T03:22:48.277Z,3.45
2023-01-10T03:25:19.003Z,3.58
2023-01-10T03:27:57.511Z,4.07
2023-01-10T03:30:26.962Z,3.53
2023-01-10T03:32:55.239Z,4.18
2023-01-10T03:35:24.226Z,3.60
2023-01-10T03:38:10.295Z,3.67
2023-01-10T03:40:47.631Z,3.30
2023-01-10T03:43:44.802Z,3.75
2023-01-10T03:46:42.798Z,3.63
2023-01-10T03:49:11.025Z,3.40
2023-01-10T03:51:39.094Z,3.65
2023-01-10T03:54:05.962Z,3.95
2023-01-10T03:56:49.679Z,3.03
2023-01-10T03:59:19.086Z,4.18
2023-01-10T04:01:45.721Z,3.78
2023-01-10T04:04:12.304Z,4.00
2023-01-10T04:06:38.778Z,3.80
2023-01-10T04:09:05.932Z,3.45
2023-01-10T04:11:32.734Z,3.42
2023-01-10T04:13:59.519Z,3.92
2023-01-10T04:16:26.140Z,3.63
2023-01-10T04:18:52.583Z,4.13
2023-01-10T04:21:19.105Z,3.53
2023-01-10T04:23:45.562Z,3.95
2023-01-10T04:26:12.323Z,3.92
2023-01-10T04:28:38.860Z,3.95
2023-01-10T04:31:05.462Z,3.95
2023-01-10T04:33:32.401Z,3.60
2023-01-10T04:35:58.907Z,3.35
2023-01-10T04:38:25.397Z,3.25
2023-01-10T04:40:56.702Z,3.25
2023-01-10T04:43:25.028Z,3.85
2023-01-10T04:45:52.102Z,3.50
2023-01-10T04:48:19.238Z,4.03
2023-01-10T04:50:52.415Z,3.83
2023-01-10T04:53:19.627Z,3.38
2023-01-10T04:55:47.158Z,3.40
2023-01-10T04:58:13.763Z,3.78
2023-01-10T05:00:40.888Z,4.03
2023-01-10T05:03:07.693Z,4.07
2023-01-10T05:05:34.242Z,3.35
2023-01-10T05:08:00.913Z,3.33
2023-01-10T05:10:27.405Z,3.83
2023-01-10T05:12:53.847Z,3.80
2023-01-10T05:15:22.203Z,3.70
2023-01-10T05:17:49.198Z,3.90
2023-01-10T05:20:15.839Z,4.32
2023-01-10T05:22:42.335Z,4.07
2023-01-10T05:25:09.274Z,3.63
2023-01-10T05:27:35.729Z,3.33
2023-01-10T05:30:02.218Z,3.83
2023-01-10T05:32:29.580Z,3.75
2023-01-10T05:34:56.920Z,4.63
2023-01-10T05:37:23.412Z,4.28
2023-01-10T05:39:49.874Z,4.72
2023-01-10T05:42:16.292Z,3.95
2023-01-10T05:44:43.095Z,4.32
2023-01-10T05:47:09.828Z,3.90
2023-01-10T05:49:36.575Z,3.40
2023-01-10T05:52:03.084Z,3.83
2023-01-10T05:54:29.801Z,3.80
2023-01-10T05:56:56.864Z,5.40
2023-01-10T05:59:30.371Z,4.32
2023-01-10T06:01:56.977Z,4.28
2023-01-10T06:04:23.651Z,4.38
2023-01-10T06:06:50.539Z,4.30
2023-01-10T06:09:17.069Z,3.72
2023-01-10T06:11:43.664Z,4.72
2023-01-10T06:14:10.306Z,5.22
2023-01-10T06:16:36.782Z,4.80
2023-01-10T06:19:03.229Z,4.57
2023-01-10T06:21:29.779Z,4.05
2023-01-10T06:23:56.226Z,4.25
2023-01-10T06:26:22.878Z,4.20
2023-01-10T06:28:49.319Z,4.15
2023-01-10T06:31:15.849Z,4.80
2023-01-10T06:33:43.895Z,4.32
2023-01-10T06:36:10.645Z,4.60
2023-01-10T06:38:46.959Z,4.85
2023-01-10T06:41:13.532Z,4.63
2023-01-10T06:43:45.797Z,4.13
2023-01-10T06:46:13.457Z,4.85
2023-01-10T06:48:40.000Z,4.18
2023-01-10T06:51:06.491Z,4.55
2023-01-10T06:53:32.947Z,4.00
2023-01-10T06:55:59.567Z,4.82
2023-01-10T06:58:26.221Z,4.63
2023-01-10T07:00:52.933Z,4.40
2023-01-10T07:03:19.424Z,5.18
2023-01-10T07:05:45.911Z,5.07
2023-01-10T07:08:12.424Z,4.97
2023-01-10T07:10:42.540Z,4.72
2023-01-10T07:13:09.032Z,4.38
2023-01-10T07:15:36.252Z,5.05
2023-01-10T07:18:02.780Z,4.65
2023-01-10T07:20:29.307Z,4.22
2023-01-10T07:23:00.508Z,4.32
2023-01-10T07:25:29.179Z,5.25
2023-01-10T07:27:55.731Z,4.30
2023-01-10T07:30:25.214Z,4.70
2023-01-10T07:32:56.660Z,4.43
2023-01-10T07:35:24.433Z,4.43
2023-01-10T07:37:50.978Z,4.63
2023-01-10T07:40:17.771Z,4.63
2023-01-10T07:42:44.282Z,4.75
2023-01-10T07:45:11.244Z,4.53
2023-01-10T07:47:37.925Z,4.55
2023-01-10T07:50:04.913Z,4.85
2023-01-10T07:52:33.081Z,5.35
2023-01-10T07:54:59.683Z,5.82
2023-01-10T07:57:26.103Z,4.95
2023-01-10T07:59:52.600Z,4.82
2023-01-10T08:02:19.119Z,5.78
2023-01-10T08:04:45.536Z,4.80
2023-01-10T08:07:11.921Z,4.10
2023-01-10T08:09:38.413Z,4.50
2023-01-10T08:12:04.883Z,4.60
2023-01-10T08:14:31.529Z,5.03
2023-01-10T08:16:57.954Z,5.20
2023-01-10T08:19:24.407Z,5.55
2023-01-10T08:21:50.921Z,5.50
2023-01-10T08:24:17.359Z,5.32
2023-01-10T08:26:43.847Z,5.32
2023-01-10T08:29:10.283Z,5.75
2023-01-10T08:31:36.773Z,5.40
2023-01-10T08:34:03.203Z,5.40
2023-01-10T08:36:30.044Z,5.57
2023-01-10T08:38:56.819Z,5.93
2023-01-10T08:41:23.386Z,5.70
2023-01-10T08:43:50.669Z,7.03
2023-01-10T08:46:17.835Z,7.32
2023-01-10T08:48:44.517Z,6.53
2023-01-10T08:51:11.033Z,5.35
2023-01-10T08:53:39.835Z,6.32
2023-01-10T08:56:07.017Z,5.75
2023-01-10T08:58:33.907Z,6.30
2023-01-10T09:01:04.199Z,6.55
2023-01-10T09:03:30.788Z,5.40
2023-01-10T09:05:59.700Z,6.50
2023-01-10T09:08:26.126Z,6.13
2023-01-10T09:10:53.007Z,5.43
2023-01-10T09:13:19.809Z,5.38
2023-01-10T09:15:46.492Z,4.70
2023-01-10T09:18:14.470Z,4.55
2023-01-10T09:20:42.595Z,5.40
2023-01-10T09:23:11.784Z,4.95
2023-01-10T09:25:38.800Z,6.20
2023-01-10T09:28:05.968Z,5.40
2023-01-10T09:30:32.588Z,5.07
2023-01-10T09:32:59.320Z,5.05
2023-01-10T09:35:27.994Z,5.55
2023-01-10T09:38:00.515Z,4.97
2023-01-10T09:40:35.827Z,5.40
2023-01-10T09:43:21.669Z,5.38
2023-01-10T09:45:51.969Z,4.97
2023-01-10T09:48:27.218Z,6.00
2023-01-10T09:51:02.986Z,5.15
2023-01-10T09:53:32.838Z,5.53
2023-01-10T09:56:00.954Z,4.97
2023-01-10T09:58:31.822Z,5.00
2023-01-10T10:01:04.475Z,4.10
2023-01-10T10:03:53.668Z,5.07
2023-01-10T10:06:22.655Z,5.47
2023-01-10T10:08:50.923Z,5.05
2023-01-10T10:11:26.519Z,5.85
2023-01-10T10:14:05.453Z,5.18
2023-01-10T10:16:53.731Z,4.72
2023-01-10T10:19:50.607Z,5.35
2023-01-10T10:22:29.261Z,5.35
2023-01-10T10:25:25.059Z,4.88
2023-01-10T10:28:16.296Z,4.78
2023-01-10T10:31:01.586Z,5.13
2023-01-10T10:33:56.776Z,6.10
2023-01-10T10:36:35.693Z,4.60
2023-01-10T10:39:03.466Z,4.50
2023-01-10T10:41:35.555Z,4.90
2023-01-10T10:44:18.202Z,5.45
2023-01-10T10:46:44.691Z,4.63
2023-01-10T10:49:22.309Z,4.40
2023-01-10T10:51:52.911Z,4.43
2023-01-10T10:54:19.736Z,4.68
2023-01-10T10:56:47.091Z,5.28
2023-01-10T10:59:18.474Z,4.32
2023-01-10T11:01:48.798Z,4.88
2023-01-10T11:04:20.787Z,5.03
2023-01-10T11:06:50.604Z,4.30
2023-01-10T11:09:24.062Z,4.68
2023-01-10T11:14:43.365Z,5.07
2023-01-10T11:17:28.018Z,4.88
2023-01-10T11:20:03.910Z,4.30
2023-01-10T11:22:38.429Z,4.15
2023-01-10T11:25:05.668Z,4.78
2023-01-10T11:27:43.611Z,4.95
2023-01-10T11:30:37.971Z,4.38
2023-01-10T11:33:07.481Z,5.13
2023-01-10T11:35:39.033Z,4.05
2023-01-10T11:38:06.400Z,4.53
2023-01-10T11:40:34.404Z,3.58
2023-01-10T11:43:23.400Z,3.88
2023-01-10T11:45:55.474Z,5.55
2023-01-10T11:48:47.827Z,4.25
2023-01-10T11:51:28.667Z,4.38
2023-01-10T11:54:00.776Z,4.05
2023-01-10T11:56:31.148Z,3.70
2023-01-10T11:59:07.117Z,3.92
2023-01-10T12:01:53.639Z,3.97
2023-01-10T12:04:22.686Z,4.70
2023-01-10T12:06:55.857Z,3.85
2023-01-10T12:09:42.598Z,3.95
2023-01-10T12:12:34.185Z,4.20
2023-01-10T12:15:30.764Z,3.83
2023-01-10T12:18:00.117Z,3.88
2023-01-10T12:20:29.561Z,4.07
2023-01-10T12:23:00.483Z,4.65
2023-01-10T12:25:37.081Z,4.15
2023-01-10T12:28:04.368Z,4.15
2023-01-10T12:30:38.866Z,3.42
2023-01-10T12:33:16.732Z,4.40
2023-01-10T12:35:55.114Z,3.60
2023-01-10T12:38:48.586Z,3.65
2023-01-10T12:41:41.996Z,3.55
2023-01-10T12:44:17.885Z,3.38
2023-01-10T12:47:13.696Z,4.20
2023-01-10T12:50:08.254Z,4.25
2023-01-10T12:53:00.677Z,4.30
2023-01-10T12:55:36.413Z,4.53
2023-01-10T12:58:05.496Z,3.60
2023-01-10T13:00:48.749Z,3.90
2023-01-10T13:03:21.171Z,4.00
2023-01-10T13:05:51.893Z,3.50
2023-01-10T13:08:23.704Z,3.60
2023-01-10T13:10:53.362Z,4.00
2023-01-10T13:13:34.111Z,3.50
2023-01-10T13:16:22.330Z,3.65
2023-01-10T13:19:02.152Z,3.80
2023-01-10T13:21:30.945Z,2.92
2023-01-10T13:24:22.433Z,3.45
2023-01-10T13:26:52.494Z,3.47
2023-01-10T13:29:22.234Z,3.40
2023-01-10T13:31:50.957Z,3.60
2023-01-10T13:34:20.052Z,3.53
2023-01-10T13:36:56.608Z,3.03
2023-01-10T13:39:30.940Z,3.25
2023-01-10T13:42:16.126Z,3.80
2023-01-10T13:45:00.642Z,2.95
2023-01-10T13:47:39.419Z,3.58
2023-01-10T13:50:24.005Z,3.00
2023-01-10T13:52:55.064Z,3.17
2023-01-10T13:55:36.150Z,3.78
2023-01-10T13:58:09.668Z,3.42
2023-01-10T14:00:54.992Z,3.83
2023-01-10T14:03:52.417Z,3.50
2023-01-10T14:06:42.439Z,2.88
2023-01-10T14:09:12.063Z,3.13
2023-01-10T14:11:44.372Z,3.65
2023-01-10T14:14:39.906Z,2.65
2023-01-10T14:17:14.902Z,3.58
2023-01-10T14:19:44.672Z,3.55
2023-01-10T14:22:31.177Z,2.58
2023-01-10T14:25:15.775Z,2.92
2023-01-10T14:27:46.148Z,2.85
2023-01-10T14:30:27.354Z,2.97
2023-01-10T14:32:57.990Z,3.08
2023-01-10T14:35:32.276Z,3.45
2023-01-10T14:38:02.536Z,3.53
2023-01-10T14:40:37.867Z,3.20
2023-01-10T14:43:09.207Z,3.28
2023-01-10T14:45:38.588Z,3.08
2023-01-10T14:48:29.674Z,3.13
2023-01-10T14:51:08.260Z,3.53
2023-01-10T14:53:34.875Z,3.33
2023-01-10T14:56:01.395Z,2.63
2023-01-10T14:58:27.822Z,2.95
2023-01-10T15:00:56.429Z,3.38
2023-01-10T15:03:24.892Z,3.28
2023-01-10T15:05:57.149Z,3.47
2023-01-10T15:08:24.818Z,3.35
2023-01-10T15:11:05.711Z,3.78
2023-01-10T15:13:36.853Z,3.03
2023-01-10T15:16:05.485Z,3.42
2023-01-10T15:18:45.564Z,3.05
2023-01-10T15:21:14.170Z,3.90
2023-01-10T15:23:43.222Z,3.03
2023-01-10T15:26:16.184Z,3.65
2023-01-10T15:28:49.031Z,3.35
2023-01-10T15:31:19.639Z,3.42
2023-01-10T15:33:56.388Z,2.88
2023-01-10T15:36:27.353Z,3.35
2023-01-10T15:38:54.432Z,3.67
2023-01-10T15:41:23.626Z,3.50
2023-01-10T15:43:51.881Z,4.32
2023-01-10T15:46:23.117Z,3.30
2023-01-10T15:49:01.257Z,4.10
2023-01-10T15:51:47.473Z,4.13
2023-01-10T15:54:19.678Z,3.67
2023-01-10T15:56:51.801Z,3.53
2023-01-10T15:59:30.051Z,3.22
2023-01-10T16:02:05.255Z,4.13
2023-01-10T16:04:36.069Z,4.13
2023-01-10T16:07:16.606Z,4.18
2023-01-10T16:09:50.007Z,4.07
2023-01-10T16:15:21.711Z,3.72
2023-01-10T16:17:49.183Z,4.22
2023-01-10T16:20:18.053Z,3.42
2023-01-10T16:22:45.741Z,4.45
2023-01-10T16:25:15.257Z,3.78
2023-01-10T16:27:41.911Z,3.70
2023-01-10T16:30:22.367Z,3.78
2023-01-10T16:32:49.351Z,4.95
2023-01-10T16:35:18.510Z,4.32
2023-01-10T16:37:48.434Z,5.20
2023-01-10T16:40:28.096Z,20.23
2023-01-10T16:43:14.558Z,11.65
2023-01-10T16:45:41.284Z,5.75
2023-01-10T16:48:07.905Z,6.18
2023-01-10T16:50:34.755Z,4.95
2023-01-10T16:53:01.325Z,6.25
2023-01-10T16:55:45.265Z,7.65
2023-01-10T16:58:13.032Z,6.43
2023-01-10T17:00:41.064Z,7.60
2023-01-10T17:03:16.933Z,7.65
2023-01-10T17:05:43.641Z,6.15
2023-01-10T17:08:17.943Z,5.18
2023-01-10T17:10:47.256Z,3.78
2023-01-10T17:13:24.989Z,4.68
2023-01-10T17:15:51.619Z,4.88
2023-01-10T17:18:18.059Z,4.38
2023-01-10T17:20:45.333Z,4.40
2023-01-10T17:23:14.918Z,4.65
2023-01-10T17:25:41.712Z,4.38
2023-01-10T17:28:11.713Z,4.45
2023-01-10T17:30:41.853Z,4.15
2023-01-10T17:33:10.880Z,3.88
2023-01-10T17:35:44.575Z,4.25
2023-01-10T17:38:13.094Z,4.18
2023-01-10T17:40:43.812Z,4.20
2023-01-10T17:43:11.559Z,4.20
2023-01-10T17:45:42.349Z,5.55
2023-01-10T17:48:10.267Z,3.58
2023-01-10T17:50:36.915Z,4.10
2023-01-10T17:53:03.379Z,3.90
2023-01-10T17:55:29.842Z,3.97
2023-01-10T17:57:56.936Z,3.80
2023-01-10T18:00:23.862Z,4.28
2023-01-10T18:02:50.458Z,3.85
2023-01-10T18:05:17.557Z,3.53
2023-01-10T18:07:43.997Z,3.22
2023-01-10T18:10:11.079Z,3.15
2023-01-10T18:12:37.935Z,2.90
2023-01-10T18:15:05.735Z,3.88
2023-01-10T18:17:32.178Z,3.58
2023-01-10T18:19:58.651Z,3.67
2023-01-10T18:22:45.389Z,3.70
2023-01-10T18:25:11.885Z,3.17
2023-01-10T18:27:38.365Z,4.00
2023-01-10T18:30:05.270Z,3.72
2023-01-10T18:32:32.388Z,3.40
2023-01-10T18:35:00.086Z,3.85
2023-01-10T18:37:26.656Z,3.88
2023-01-10T18:39:53.187Z,3.63
2023-01-10T18:42:19.590Z,3.70
2023-01-10T18:44:46.047Z,5.03
2023-01-10T18:47:12.457Z,5.22
2023-01-10T18:49:38.881Z,6.43
2023-01-10T18:52:06.382Z,6.28
2023-01-10T18:54:33.018Z,4.90
2023-01-10T18:56:59.460Z,3.72
2023-01-10T18:59:25.909Z,3.40
2023-01-10T19:01:52.431Z,4.03
2023-01-10T19:04:18.929Z,3.13
2023-01-10T19:06:45.680Z,3.28
2023-01-10T19:09:12.160Z,3.40
2023-01-10T19:11:38.593Z,3.50
2023-01-10T19:14:05.093Z,3.05
2023-01-10T19:16:34.146Z,2.80
2023-01-10T19:19:03.401Z,2.90
2023-01-10T19:21:32.279Z,3.00
2023-01-10T19:24:05.847Z,2.78
2023-01-10T19:26:33.062Z,2.88
2023-01-10T19:28:59.539Z,2.35
2023-01-10T19:31:28.018Z,2.70
2023-01-10T19:33:58.223Z,2.45
2023-01-10T19:36:25.492Z,2.50
2023-01-10T19:38:57.341Z,2.17
2023-01-10T19:41:25.274Z,2.45
2023-01-10T19:43:57.057Z,2.50
2023-01-10T19:46:23.955Z,2.58
2023-01-10T19:48:50.528Z,2.97
2023-01-10T19:51:17.027Z,2.83
2023-01-10T19:53:46.402Z,3.30
2023-01-10T19:56:19.559Z,3.40
2023-01-10T19:58:47.592Z,3.90
2023-01-10T20:01:16.627Z,3.22
2023-01-10T20:03:46.510Z,3.60
2023-01-10T20:06:16.838Z,3.03
2023-01-10T20:08:44.565Z,2.83
2023-01-10T20:11:11.085Z,2.88
2023-01-10T20:13:44.322Z,2.80
2023-01-10T20:16:12.567Z,3.13
2023-01-10T20:18:39.037Z,2.50
2023-01-10T20:21:06.821Z,2.70
2023-01-10T20:23:34.770Z,2.95
2023-01-10T20:26:09.542Z,2.53
2023-01-10T20:28:37.448Z,2.75
2023-01-10T20:31:07.470Z,2.55
2023-01-10T20:33:34.682Z,2.70
2023-01-10T20:36:04.256Z,2.22
2023-01-10T20:38:32.063Z,2.50
2023-01-10T20:41:05.304Z,2.65
2023-01-10T20:43:32.594Z,2.33
2023-01-10T20:46:11.507Z,2.70
2023-01-10T20:48:39.098Z,2.45
2023-01-10T20:51:07.263Z,2.35
2023-01-10T20:53:34.252Z,2.55
2023-01-10T20:56:10.577Z,2.38
2023-01-10T20:58:37.873Z,10.45
2023-01-10T21:01:04.402Z,7.15
2023-01-10T21:03:30.822Z,5.00
2023-01-10T21:05:59.257Z,6.78
2023-01-10T21:08:26.473Z,4.57
2023-01-10T21:10:53.085Z,4.75
2023-01-10T21:13:19.700Z,4.80
2023-01-10T21:15:47.383Z,2.83
2023-01-10T21:18:15.865Z,2.45
2023-01-10T21:20:46.960Z,2.85
2023-01-10T21:23:14.592Z,3.78
2023-01-10T21:25:41.242Z,2.30
2023-01-10T21:28:10.496Z,1.77
2023-01-10T21:30:37.502Z,1.50
2023-01-10T21:33:04.404Z,2.75
2023-01-10T21:35:31.272Z,2.17
2023-01-10T21:37:57.990Z,8.68
2023-01-10T21:40:25.485Z,7.68
2023-01-10T21:42:52.579Z,2.88
2023-01-10T21:45:21.046Z,2.00
2023-01-10T21:47:48.982Z,2.58
2023-01-10T21:50:16.167Z,3.33
2023-01-10T21:52:43.170Z,3.22
2023-01-10T21:55:10.959Z,5.63
2023-01-10T21:57:39.474Z,5.07
2023-01-10T22:00:06.852Z,6.38
2023-01-10T22:02:38.007Z,7.80
2023-01-10T22:05:04.799Z,2.80
2023-01-10T22:07:31.304Z,1.98
2023-01-10T22:09:57.728Z,1.58
2023-01-10T22:12:25.304Z,1.80
2023-01-10T22:14:52.024Z,2.40
2023-01-10T22:17:18.476Z,2.15
2023-01-10T22:19:45.000Z,2.30
2023-01-10T22:22:11.468Z,1.92
2023-01-10T22:24:38.027Z,2.30
2023-01-10T22:27:05.014Z,2.00
2023-01-10T22:29:31.733Z,1.77
2023-01-10T22:31:58.229Z,1.67
2023-01-10T22:34:24.831Z,1.70
2023-01-10T22:36:51.277Z,1.65
2023-01-10T22:39:17.889Z,1.65
2023-01-10T22:41:44.300Z,1.45
2023-01-10T22:44:22.413Z,1.20
2023-01-10T22:46:50.771Z,1.58
2023-01-10T22:49:17.517Z,1.10
2023-01-10T22:51:44.400Z,2.00
2023-01-10T22:54:15.775Z,1.95
2023-01-10T22:56:43.020Z,1.70
2023-01-10T22:59:09.535Z,1.92
2023-01-10T23:01:35.988Z,1.95
2023-01-10T23:04:02.565Z,1.63
2023-01-10T23:06:29.523Z,1.80
2023-01-10T23:08:56.236Z,1.58
2023-01-10T23:11:23.014Z,1.60
2023-01-10T23:13:49.457Z,1.77
2023-01-10T23:16:28.401Z,1.70
2023-01-10T23:18:56.791Z,1.45
2023-01-10T23:21:24.301Z,1.33
2023-01-10T23:23:51.670Z,1.33
2023-01-10T23:26:18.598Z,1.40
2023-01-10T23:28:50.572Z,1.25
2023-01-10T23:31:22.724Z,1.30
2023-01-10T23:33:50.121Z,1.20
2023-01-10T23:36:17.524Z,1.23
2023-01-10T23:38:44.266Z,1.25
2023-01-10T23:41:11.228Z,1.15
2023-01-10T23:43:37.894Z,1.20
2023-01-10T23:46:05.757Z,0.98
2023-01-10T23:48:32.289Z,1.10
2023-01-10T23:50:58.888Z,1.00
2023-01-10T23:53:25.794Z,0.90
2023-01-10T23:55:53.252Z,1.27
2023-01-10T23:58:20.386Z,1.00
